createdAt,value
2018-03-06T00:01:09.789Z,39.60
2018-03-06T00:03:37.376Z,40.25
2018-03-06T00:06:04.914Z,44.45
2018-03-06T00:08:32.490Z,44.55
2018-03-06T00:11:00.654Z,44.08
2018-03-06T00:13:28.215Z,43.70
2018-03-06T00:15:56.291Z,41.58
2018-03-06T00:18:23.857Z,44.83
2018-03-06T00:20:51.395Z,48.70
2018-03-06T00:23:18.947Z,46.25
2018-03-06T00:25:46.541Z,44.95
2018-03-06T00:28:14.371Z,44.25
2018-03-06T00:30:43.278Z,47.00
2018-03-06T00:33:10.917Z,48.50
2018-03-06T00:35:39.223Z,50.53
2018-03-06T00:38:07.574Z,42.47
2018-03-06T00:40:35.911Z,44.15
2018-03-06T00:43:03.478Z,42.80
2018-03-06T00:45:31.069Z,45.65
2018-03-06T00:47:58.629Z,47.00
2018-03-06T00:50:26.978Z,48.70
2018-03-06T00:52:54.554Z,46.25
2018-03-06T00:55:22.106Z,50.75
2018-03-06T00:57:49.718Z,53.25
2018-03-06T01:00:17.301Z,52.15
2018-03-06T01:02:44.863Z,50.88
2018-03-06T01:05:12.409Z,51.10
2018-03-06T01:07:39.978Z,53.25
2018-03-06T01:10:07.509Z,52.70
2018-03-06T01:12:35.817Z,53.90
2018-03-06T01:15:03.342Z,52.58
2018-03-06T01:17:31.674Z,54.05
2018-03-06T01:19:59.238Z,54.25
2018-03-06T01:22:26.821Z,56.05
2018-03-06T01:24:54.413Z,56.40
2018-03-06T01:27:22.701Z,55.95
2018-03-06T01:29:50.711Z,59.15
2018-03-06T01:32:18.343Z,57.33
2018-03-06T01:34:45.900Z,55.75
2018-03-06T01:37:13.426Z,58.00
2018-03-06T01:39:41.750Z,53.25
2018-03-06T01:42:09.326Z,52.40
2018-03-06T01:44:36.874Z,56.92
2018-03-06T01:47:04.458Z,56.20
2018-03-06T01:49:32.029Z,53.90
2018-03-06T01:51:59.578Z,59.25
2018-03-06T01:54:27.135Z,53.72
2018-03-06T01:56:54.649Z,55.83
2018-03-06T01:59:23.004Z,56.97
2018-03-06T02:01:50.584Z,54.75
2018-03-06T02:04:18.912Z,53.40
2018-03-06T02:06:46.465Z,53.72
2018-03-06T02:09:14.075Z,55.33
2018-03-06T02:11:42.391Z,56.65
2018-03-06T02:14:09.947Z,57.38
2018-03-06T02:16:37.495Z,56.67
2018-03-06T02:19:05.839Z,63.10
2018-03-06T02:21:33.365Z,55.10
2018-03-06T02:24:00.944Z,56.80
2018-03-06T02:26:28.516Z,54.67
2018-03-06T02:28:56.862Z,57.10
2018-03-06T02:31:24.413Z,58.53
2018-03-06T02:33:51.968Z,56.65
2018-03-06T02:36:19.505Z,58.58
2018-03-06T02:38:47.803Z,55.33
2018-03-06T02:41:15.410Z,58.33
2018-03-06T02:43:42.956Z,59.00
2018-03-06T02:46:13.384Z,59.80
2018-03-06T02:48:40.939Z,57.55
2018-03-06T02:51:08.493Z,56.85
2018-03-06T02:53:36.371Z,57.65
2018-03-06T02:56:03.950Z,58.72
2018-03-06T02:58:31.530Z,62.78
2018-03-06T03:00:59.116Z,55.80
2018-03-06T03:03:27.474Z,62.67
2018-03-06T03:05:55.073Z,56.15
2018-03-06T03:08:22.624Z,55.00
2018-03-06T03:10:50.212Z,56.03
2018-03-06T03:13:17.758Z,58.45
2018-03-06T03:15:45.373Z,58.35
2018-03-06T03:18:12.934Z,58.30
2018-03-06T03:20:40.491Z,58.63
2018-03-06T03:23:08.063Z,58.75
2018-03-06T03:25:35.602Z,57.62
2018-03-06T03:28:03.150Z,57.28
2018-03-06T03:30:30.710Z,54.22
2018-03-06T03:32:58.262Z,59.20
2018-03-06T03:35:25.830Z,60.63
2018-03-06T03:37:53.439Z,56.88
2018-03-06T03:40:22.463Z,61.88
2018-03-06T03:42:50.056Z,57.47
2018-03-06T03:45:17.604Z,58.50
2018-03-06T03:47:45.158Z,59.25
2018-03-06T03:50:12.706Z,62.85
2018-03-06T03:52:40.264Z,60.70
2018-03-06T03:55:07.847Z,56.65
2018-03-06T03:57:35.423Z,58.30
2018-03-06T04:00:02.987Z,59.05
2018-03-06T04:02:30.543Z,58.42
2018-03-06T04:04:58.088Z,54.78
2018-03-06T04:07:25.667Z,57.25
2018-03-06T04:09:53.226Z,55.97
2018-03-06T04:12:20.806Z,59.55
2018-03-06T04:14:48.340Z,51.78
2018-03-06T04:17:15.913Z,58.35
2018-03-06T04:19:43.474Z,56.72
2018-03-06T04:22:11.082Z,51.10
2018-03-06T04:24:38.633Z,52.45
2018-03-06T04:27:06.942Z,52.90
2018-03-06T04:29:34.510Z,50.85
2018-03-06T04:32:02.077Z,50.75
2018-03-06T04:34:30.805Z,54.83
2018-03-06T04:36:58.365Z,53.20
2018-03-06T04:39:25.964Z,59.65
2018-03-06T04:41:53.913Z,50.65
2018-03-06T04:44:22.251Z,49.67
2018-03-06T04:46:49.789Z,52.58
2018-03-06T04:49:17.346Z,53.03
2018-03-06T04:51:44.877Z,52.62
2018-03-06T04:54:13.223Z,54.63
2018-03-06T04:56:40.786Z,52.03
2018-03-06T04:59:08.352Z,55.17
2018-03-06T05:01:36.751Z,52.67
2018-03-06T05:04:04.490Z,52.80
2018-03-06T05:06:32.070Z,53.95
2018-03-06T05:08:59.679Z,51.85
2018-03-06T05:11:27.253Z,51.55
2018-03-06T05:13:55.096Z,59.72
2018-03-06T05:16:22.675Z,59.10
2018-03-06T05:18:50.258Z,58.47
2018-03-06T05:21:18.060Z,60.95
2018-03-06T05:23:46.367Z,60.58
2018-03-06T05:26:14.954Z,55.72
2018-03-06T05:28:42.495Z,58.13
2018-03-06T05:31:10.066Z,58.35
2018-03-06T05:33:37.623Z,57.88
2018-03-06T05:36:05.970Z,63.63
2018-03-06T05:38:33.505Z,58.95
2018-03-06T05:41:01.082Z,58.20
2018-03-06T05:43:29.470Z,58.17
2018-03-06T05:45:57.027Z,60.22
2018-03-06T05:48:24.587Z,67.15
2018-03-06T05:50:52.142Z,64.40
2018-03-06T05:53:19.670Z,59.92
2018-03-06T05:55:47.244Z,57.47
2018-03-06T05:58:14.826Z,60.00
2018-03-06T06:00:42.394Z,59.33
2018-03-06T06:03:09.946Z,61.25
2018-03-06T06:05:38.334Z,59.70
2018-03-06T06:08:05.908Z,66.28
2018-03-06T06:10:34.211Z,76.95
2018-03-06T06:13:01.783Z,65.40
2018-03-06T06:15:29.340Z,66.25
2018-03-06T06:17:56.925Z,76.50
2018-03-06T06:20:24.441Z,80.95
2018-03-06T06:22:52.013Z,72.70
2018-03-06T06:25:19.546Z,68.65
2018-03-06T06:27:47.133Z,74.05
2018-03-06T06:30:15.440Z,70.40
2018-03-06T06:32:42.971Z,69.25
2018-03-06T06:35:11.250Z,72.87
2018-03-06T06:37:39.609Z,68.37
2018-03-06T06:40:07.945Z,63.65
2018-03-06T06:42:35.486Z,57.50
2018-03-06T06:45:03.025Z,57.70
2018-03-06T06:47:31.344Z,57.92
2018-03-06T06:49:58.879Z,59.45
2018-03-06T06:52:26.482Z,55.83
2018-03-06T06:54:53.950Z,62.78
2018-03-06T06:57:21.608Z,60.30
2018-03-06T06:59:50.677Z,57.42
2018-03-06T07:02:19.063Z,63.00
2018-03-06T07:04:46.603Z,60.90
2018-03-06T07:07:14.251Z,58.17
2018-03-06T07:09:42.820Z,61.67
2018-03-06T07:12:10.354Z,62.67
2018-03-06T07:14:37.914Z,62.60
2018-03-06T07:17:05.542Z,79.12
2018-03-06T07:19:33.183Z,72.93
2018-03-06T07:22:00.771Z,65.93
2018-03-06T07:24:28.344Z,59.33
2018-03-06T07:26:55.883Z,59.40
2018-03-06T07:29:23.470Z,60.70
2018-03-06T07:31:51.026Z,59.60
2018-03-06T07:34:18.586Z,57.72
2018-03-06T07:36:46.123Z,60.00
2018-03-06T07:39:13.754Z,60.45
2018-03-06T07:41:42.339Z,58.60
2018-03-06T07:44:10.700Z,52.75
2018-03-06T07:46:38.229Z,58.83
2018-03-06T07:49:05.781Z,48.13
2018-03-06T07:51:33.312Z,49.10
2018-03-06T07:54:01.644Z,49.47
2018-03-06T07:56:29.194Z,47.22
2018-03-06T07:58:57.523Z,46.42
2018-03-06T08:01:25.830Z,47.92
2018-03-06T08:03:53.360Z,47.38
2018-03-06T08:06:21.727Z,47.75
2018-03-06T08:08:49.268Z,45.75
2018-03-06T08:11:16.831Z,47.65
2018-03-06T08:13:44.389Z,45.60
2018-03-06T08:16:11.910Z,44.03
2018-03-06T08:18:39.486Z,44.50
2018-03-06T08:21:07.011Z,45.88
2018-03-06T08:23:35.335Z,50.97
2018-03-06T08:26:02.866Z,46.30
2018-03-06T08:28:30.459Z,47.47
2018-03-06T08:30:58.002Z,48.95
2018-03-06T08:33:25.971Z,45.72
2018-03-06T08:35:53.573Z,46.53
2018-03-06T08:38:21.883Z,46.88
2018-03-06T08:40:50.190Z,43.45
2018-03-06T08:43:17.710Z,43.67
2018-03-06T08:45:46.038Z,41.80
2018-03-06T08:48:13.554Z,40.75
2018-03-06T08:50:42.481Z,38.95
2018-03-06T08:53:10.062Z,38.65
2018-03-06T08:55:37.883Z,39.42
2018-03-06T08:58:06.162Z,40.78
2018-03-06T09:00:34.480Z,36.38
2018-03-06T09:03:02.034Z,38.80
2018-03-06T09:05:29.621Z,40.72
2018-03-06T09:07:57.197Z,40.35
2018-03-06T09:10:24.769Z,38.97
2018-03-06T09:12:53.062Z,39.08
2018-03-06T09:15:21.375Z,42.08
2018-03-06T09:17:48.892Z,42.10
2018-03-06T09:20:17.812Z,41.72
2018-03-06T09:22:45.389Z,40.33
2018-03-06T09:25:12.957Z,41.33
2018-03-06T09:27:40.516Z,39.90
2018-03-06T09:30:08.061Z,42.72
2018-03-06T09:32:35.630Z,42.17
2018-03-06T09:35:03.977Z,45.20
2018-03-06T09:37:32.268Z,45.30
2018-03-06T09:39:59.790Z,43.20
2018-03-06T09:42:28.127Z,44.50
2018-03-06T09:44:55.654Z,43.10
2018-03-06T09:47:23.244Z,42.53
2018-03-06T09:49:50.780Z,49.65
2018-03-06T09:52:18.376Z,49.40
2018-03-06T09:54:45.896Z,45.55
2018-03-06T09:57:13.457Z,46.53
2018-03-06T09:59:41.039Z,48.40
2018-03-06T10:02:08.561Z,46.90
2018-03-06T10:04:36.865Z,49.25
2018-03-06T10:07:04.380Z,50.05
2018-03-06T10:09:31.959Z,50.50
2018-03-06T10:12:00.666Z,48.50
2018-03-06T10:14:28.967Z,49.53
2018-03-06T10:16:57.122Z,45.88
2018-03-06T10:19:24.693Z,43.87
2018-03-06T10:21:52.230Z,44.90
2018-03-06T10:24:20.575Z,46.88
2018-03-06T10:26:49.039Z,45.03
2018-03-06T10:29:16.599Z,46.97
2018-03-06T10:31:44.163Z,47.80
2018-03-06T10:34:11.727Z,50.20
2018-03-06T10:36:39.263Z,48.83
2018-03-06T10:39:06.809Z,49.28
2018-03-06T10:41:34.372Z,49.50
2018-03-06T10:44:01.931Z,47.97
2018-03-06T10:46:29.513Z,52.70
2018-03-06T10:48:57.330Z,49.97
2018-03-06T10:51:24.906Z,51.00
2018-03-06T10:53:53.216Z,52.60
2018-03-06T10:56:20.767Z,50.63
2018-03-06T10:58:48.338Z,50.35
2018-03-06T11:01:21.465Z,50.95
2018-03-06T11:03:49.015Z,49.65
2018-03-06T11:06:16.553Z,49.15
2018-03-06T11:08:44.100Z,50.65
2018-03-06T11:11:11.641Z,50.05
2018-03-06T11:13:39.945Z,52.42
2018-03-06T11:16:07.461Z,55.12
2018-03-06T11:18:35.034Z,50.03
2018-03-06T11:21:03.321Z,47.45
2018-03-06T11:23:30.889Z,52.50
2018-03-06T11:25:58.419Z,50.50
2018-03-06T11:28:25.946Z,46.30
2018-03-06T11:30:53.490Z,50.40
2018-03-06T11:33:21.006Z,47.22
2018-03-06T11:35:50.090Z,45.00
2018-03-06T11:38:17.609Z,45.38
2018-03-06T11:40:45.141Z,46.13
2018-03-06T11:43:13.425Z,47.17
2018-03-06T11:45:41.726Z,44.83
2018-03-06T11:48:09.286Z,48.72
2018-03-06T11:50:37.672Z,43.80
2018-03-06T11:53:05.224Z,46.78
2018-03-06T11:55:32.794Z,44.13
2018-03-06T11:58:00.320Z,49.80
2018-03-06T12:00:28.646Z,40.72
2018-03-06T12:02:56.194Z,40.55
2018-03-06T12:05:23.731Z,39.92
2018-03-06T12:07:51.300Z,36.35
2018-03-06T12:10:18.886Z,33.17
2018-03-06T12:12:47.198Z,29.63
2018-03-06T12:15:14.760Z,29.20
2018-03-06T12:17:43.054Z,31.17
2018-03-06T12:20:11.386Z,33.78
2018-03-06T12:22:38.894Z,32.90
2018-03-06T12:25:07.200Z,32.55
2018-03-06T12:27:34.758Z,31.80
2018-03-06T12:30:02.329Z,29.02
2018-03-06T12:32:29.841Z,30.85
2018-03-06T12:34:58.174Z,30.35
2018-03-06T12:37:26.454Z,28.45
2018-03-06T12:39:54.035Z,31.12
2018-03-06T12:42:22.330Z,29.63
2018-03-06T12:44:50.678Z,28.05
2018-03-06T12:47:18.203Z,28.95
2018-03-06T12:49:45.767Z,29.60
2018-03-06T12:52:13.285Z,30.90
2018-03-06T12:54:40.840Z,31.92
2018-03-06T12:57:09.150Z,30.80
2018-03-06T12:59:37.452Z,33.10
2018-03-06T13:02:04.962Z,31.02
2018-03-06T13:04:32.506Z,30.30
2018-03-06T13:07:00.021Z,27.83
2018-03-06T13:09:27.548Z,28.15
2018-03-06T13:11:55.106Z,31.40
2018-03-06T13:14:22.638Z,32.42
2018-03-06T13:19:24.746Z,31.58
2018-03-06T13:21:53.064Z,28.45
2018-03-06T13:24:20.588Z,28.00
2018-03-06T13:26:48.938Z,28.23
2018-03-06T13:29:16.450Z,30.35
2018-03-06T13:31:44.013Z,31.00
2018-03-06T13:34:11.583Z,30.95
2018-03-06T13:36:39.144Z,25.80
2018-03-06T13:39:08.616Z,27.33
2018-03-06T13:41:36.192Z,28.62
2018-03-06T13:44:04.474Z,28.40
2018-03-06T13:46:32.822Z,28.40
2018-03-06T13:49:00.364Z,28.23
2018-03-06T13:51:27.903Z,27.90
2018-03-06T13:53:55.431Z,29.05
2018-03-06T13:56:23.731Z,29.02
2018-03-06T13:58:51.284Z,28.50
2018-03-06T14:01:18.823Z,28.42
2018-03-06T14:03:47.169Z,28.90
2018-03-06T14:06:14.743Z,29.77
2018-03-06T14:08:42.282Z,30.10
2018-03-06T14:11:09.886Z,32.92
2018-03-06T14:13:37.483Z,35.05
2018-03-06T14:16:05.026Z,33.90
2018-03-06T14:18:32.578Z,36.17
2018-03-06T14:21:00.866Z,35.10
2018-03-06T14:23:28.421Z,34.08
2018-03-06T14:25:55.957Z,31.75
2018-03-06T14:28:23.514Z,36.05
2018-03-06T14:30:51.066Z,34.80
2018-03-06T14:33:18.607Z,34.08
2018-03-06T14:35:46.924Z,31.30
2018-03-06T14:38:15.234Z,27.02
2018-03-06T14:40:42.770Z,28.40
2018-03-06T14:43:11.080Z,27.65
2018-03-06T14:45:38.630Z,30.12
2018-03-06T14:48:06.930Z,31.40
2018-03-06T14:50:34.456Z,29.87
2018-03-06T14:53:02.778Z,29.12
2018-03-06T14:55:30.342Z,30.70
2018-03-06T14:57:57.882Z,32.05
2018-03-06T15:00:25.411Z,29.50
2018-03-06T15:02:53.712Z,29.63
2018-03-06T15:05:21.252Z,28.17
2018-03-06T15:07:49.553Z,28.90
2018-03-06T15:10:17.064Z,29.37
2018-03-06T15:12:44.618Z,29.10
2018-03-06T15:15:12.136Z,25.65
2018-03-06T15:17:39.672Z,27.83
2018-03-06T15:20:07.945Z,28.02
2018-03-06T15:22:36.243Z,28.65
2018-03-06T15:25:03.801Z,28.25
2018-03-06T15:27:31.343Z,27.77
2018-03-06T15:29:59.615Z,26.27
2018-03-06T15:32:27.918Z,25.27
2018-03-06T15:34:55.427Z,25.23
2018-03-06T15:37:22.975Z,26.12
2018-03-06T15:39:53.835Z,26.60
2018-03-06T15:42:21.346Z,26.35
2018-03-06T15:44:48.889Z,26.85
2018-03-06T15:47:16.408Z,25.62
2018-03-06T15:49:43.942Z,26.67
2018-03-06T15:52:11.458Z,25.42
2018-03-06T15:54:39.762Z,23.80
2018-03-06T15:57:07.290Z,25.20
2018-03-06T15:59:35.594Z,23.85
2018-03-06T16:02:03.114Z,25.00
2018-03-06T16:04:31.418Z,23.80
2018-03-06T16:06:58.987Z,26.65
2018-03-06T16:09:27.280Z,26.87
2018-03-06T16:11:54.794Z,26.87
2018-03-06T16:14:22.343Z,26.20
2018-03-06T16:16:49.867Z,24.85
2018-03-06T16:19:17.443Z,24.42
2018-03-06T16:21:44.949Z,25.23
2018-03-06T16:24:13.263Z,26.90
2018-03-06T16:26:40.766Z,25.27
2018-03-06T16:29:08.296Z,28.23
2018-03-06T16:31:35.817Z,26.23
2018-03-06T16:34:03.339Z,23.02
2018-03-06T16:36:30.846Z,24.33
2018-03-06T16:38:58.363Z,25.85
2018-03-06T16:41:25.866Z,25.83
2018-03-06T16:43:53.848Z,24.60
2018-03-06T16:46:21.358Z,25.08
2018-03-06T16:48:49.629Z,25.08
2018-03-06T16:51:17.164Z,24.48
2018-03-06T16:53:44.675Z,25.37
2018-03-06T16:56:12.962Z,24.58
2018-03-06T16:58:40.474Z,26.67
2018-03-06T17:01:08.014Z,27.02
2018-03-06T17:03:35.875Z,27.37
2018-03-06T17:06:03.428Z,26.27
2018-03-06T17:08:30.962Z,27.20
2018-03-06T17:10:59.258Z,26.77
2018-03-06T17:13:26.783Z,24.60
2018-03-06T17:15:55.087Z,27.00
2018-03-06T17:18:22.596Z,28.98
2018-03-06T17:20:50.138Z,26.52
2018-03-06T17:23:17.680Z,25.42
2018-03-06T17:25:45.946Z,28.25
2018-03-06T17:28:13.451Z,25.85
2018-03-06T17:30:40.966Z,25.73
2018-03-06T17:33:09.234Z,27.20
2018-03-06T17:35:36.765Z,26.25
2018-03-06T17:38:04.270Z,26.12
2018-03-06T17:40:31.807Z,29.35
2018-03-06T17:43:00.075Z,35.80
2018-03-06T17:45:27.593Z,35.42
2018-03-06T17:47:55.090Z,29.90
2018-03-06T17:50:23.383Z,27.83
2018-03-06T17:52:51.659Z,31.10
2018-03-06T17:55:20.891Z,31.87
2018-03-06T17:57:48.404Z,31.05
2018-03-06T18:00:16.066Z,27.20
2018-03-06T18:02:44.339Z,27.15
2018-03-06T18:05:11.879Z,30.10
2018-03-06T18:07:39.384Z,30.48
2018-03-06T18:10:07.670Z,29.95
2018-03-06T18:12:35.186Z,32.45
2018-03-06T18:15:03.479Z,32.50
2018-03-06T18:17:30.985Z,31.98
2018-03-06T18:19:58.486Z,34.15
2018-03-06T18:22:26.774Z,33.22
2018-03-06T18:24:54.286Z,33.50
2018-03-06T18:27:21.847Z,36.10
2018-03-06T18:29:49.377Z,36.78
2018-03-06T18:32:16.945Z,36.33
2018-03-06T18:34:45.193Z,34.13
2018-03-06T18:37:13.547Z,36.55
2018-03-06T18:39:41.055Z,35.45
2018-03-06T18:42:08.638Z,33.60
2018-03-06T18:44:37.425Z,35.80
2018-03-06T18:47:05.308Z,34.25
2018-03-06T18:49:35.219Z,39.30
2018-03-06T18:52:03.555Z,37.58
2018-03-06T18:54:31.068Z,37.88
2018-03-06T18:56:58.574Z,34.25
2018-03-06T18:59:26.098Z,34.10
2018-03-06T19:05:05.184Z,30.20
2018-03-06T19:07:32.693Z,33.47
2018-03-06T19:10:00.236Z,32.28
2018-03-06T19:12:27.772Z,34.97
2018-03-06T19:14:56.092Z,34.10
2018-03-06T19:17:23.619Z,34.03
2018-03-06T19:19:51.950Z,35.85
2018-03-06T19:22:19.474Z,33.45
2018-03-06T19:24:47.790Z,35.67
2018-03-06T19:27:15.323Z,34.08
2018-03-06T19:29:42.902Z,33.20
2018-03-06T19:32:10.467Z,33.72
2018-03-06T19:34:37.991Z,35.15
2018-03-06T19:37:06.399Z,33.60
2018-03-06T19:39:33.918Z,34.42
2018-03-06T19:42:02.245Z,31.83
2018-03-06T19:44:29.817Z,34.17
2018-03-06T19:46:57.329Z,34.70
2018-03-06T19:49:24.846Z,32.42
2018-03-06T19:51:52.371Z,32.58
2018-03-06T19:54:20.706Z,33.78
2018-03-06T19:56:48.991Z,31.90
2018-03-06T19:59:16.544Z,32.88
2018-03-06T20:01:44.054Z,33.22
2018-03-06T20:04:11.629Z,26.35
2018-03-06T20:06:39.164Z,28.38
2018-03-06T20:09:08.046Z,27.35
2018-03-06T20:11:35.609Z,26.40
2018-03-06T20:14:04.591Z,24.63
2018-03-06T20:16:32.883Z,22.30
2018-03-06T20:19:06.208Z,21.60
2018-03-06T20:21:33.769Z,22.20
2018-03-06T20:24:06.972Z,24.48
2018-03-06T20:26:34.555Z,24.85
2018-03-06T20:29:02.655Z,23.80
2018-03-06T20:31:36.573Z,29.77
2018-03-06T20:34:04.906Z,26.83
2018-03-06T20:36:32.424Z,24.63
2018-03-06T20:39:05.671Z,24.83
2018-03-06T20:41:33.208Z,27.13
2018-03-06T20:44:00.798Z,28.62
2018-03-06T20:46:33.875Z,25.10
2018-03-06T20:49:01.508Z,22.87
2018-03-06T20:51:29.052Z,23.27
2018-03-06T20:54:02.337Z,25.55
2018-03-06T20:56:30.802Z,25.15
2018-03-06T20:58:58.382Z,23.60
2018-03-06T21:01:25.946Z,25.60
2018-03-06T21:03:53.489Z,21.52
2018-03-06T21:06:21.027Z,20.50
2018-03-06T21:08:48.599Z,21.08
2018-03-06T21:11:16.137Z,19.45
2018-03-06T21:13:43.766Z,19.58
2018-03-06T21:16:11.262Z,20.40
2018-03-06T21:18:38.829Z,19.87
2018-03-06T21:21:06.360Z,19.27
2018-03-06T21:23:33.914Z,19.98
2018-03-06T21:26:01.450Z,19.70
2018-03-06T21:28:29.011Z,21.00
2018-03-06T21:30:56.559Z,20.62
2018-03-06T21:33:24.104Z,19.45
2018-03-06T21:35:51.620Z,22.52
2018-03-06T21:38:19.211Z,21.27
2018-03-06T21:40:46.726Z,21.25
2018-03-06T21:43:15.050Z,21.42
2018-03-06T21:45:43.509Z,21.20
2018-03-06T21:48:11.098Z,20.05
2018-03-06T21:50:38.800Z,19.98
2018-03-06T21:53:06.613Z,21.27
2018-03-06T21:55:34.208Z,18.42
2018-03-06T21:58:02.574Z,19.50
2018-03-06T22:00:30.188Z,21.35
2018-03-06T22:02:57.692Z,19.12
2018-03-06T22:05:25.229Z,21.02
2018-03-06T22:07:53.458Z,19.77
2018-03-06T22:10:21.790Z,19.80
2018-03-06T22:12:49.325Z,19.67
2018-03-06T22:15:18.109Z,19.10
2018-03-06T22:17:45.651Z,20.12
2018-03-06T22:20:13.201Z,19.17
2018-03-06T22:22:40.731Z,19.20
2018-03-06T22:25:08.273Z,21.90
2018-03-06T22:27:35.810Z,18.80
2018-03-06T22:30:03.404Z,18.58
2018-03-06T22:32:30.950Z,19.15
2018-03-06T22:34:58.515Z,19.60
2018-03-06T22:37:26.368Z,18.27
2018-03-06T22:39:55.604Z,19.60
2018-03-06T22:42:23.137Z,18.27
2018-03-06T22:44:50.698Z,19.62
2018-03-06T22:47:18.268Z,19.15
2018-03-06T22:49:45.794Z,18.05
2018-03-06T22:52:13.347Z,17.37
2018-03-06T22:54:42.435Z,15.90
2018-03-06T22:57:09.987Z,16.67
2018-03-06T22:59:38.261Z,14.93
2018-03-06T23:02:06.562Z,14.80
2018-03-06T23:04:34.070Z,15.90
2018-03-06T23:07:01.606Z,14.00
2018-03-06T23:09:29.175Z,13.40
2018-03-06T23:11:56.745Z,11.98
2018-03-06T23:14:24.273Z,12.15
2018-03-06T23:16:51.799Z,12.82
2018-03-06T23:19:20.079Z,14.02
2018-03-06T23:21:48.378Z,12.63
2018-03-06T23:24:15.921Z,12.88
2018-03-06T23:26:43.455Z,11.88
2018-03-06T23:29:11.006Z,11.05
2018-03-06T23:31:38.527Z,13.73
2018-03-06T23:34:06.115Z,12.43
2018-03-06T23:36:33.670Z,12.63
2018-03-06T23:39:01.220Z,11.32
2018-03-06T23:41:28.749Z,12.55
2018-03-06T23:43:56.313Z,12.30
2018-03-06T23:46:24.632Z,11.12
2018-03-06T23:48:52.181Z,11.98
2018-03-06T23:51:19.724Z,12.25
2018-03-06T23:53:47.283Z,13.10
2018-03-06T23:56:14.800Z,12.23
2018-03-06T23:58:42.396Z,13.23
